createdAt,value
2023-02-19T00:03:10.018Z,23.27
2023-02-19T00:08:51.572Z,35.40
2023-02-19T00:11:30.379Z,23.65
2023-02-19T00:14:11.844Z,31.42
2023-02-19T00:16:43.857Z,23.83
2023-02-19T00:19:24.056Z,10.05
2023-02-19T00:21:59.517Z,29.88
2023-02-19T00:24:33.025Z,34.35
2023-02-19T00:27:04.399Z,29.95
2023-02-19T00:29:42.320Z,85.93
2023-02-19T00:32:14.852Z,39.45
2023-02-19T00:34:47.409Z,17.08
2023-02-19T00:37:20.372Z,30.98
2023-02-19T00:39:51.642Z,32.05
2023-02-19T00:42:25.680Z,17.10
2023-02-19T00:44:56.248Z,23.58
2023-02-19T00:47:27.886Z,11.20
2023-02-19T00:49:58.670Z,9.85
2023-02-19T00:52:29.396Z,10.10
2023-02-19T00:55:01.244Z,10.77
2023-02-19T00:57:33.038Z,7.95
2023-02-19T01:00:04.409Z,6.88
2023-02-19T01:02:40.015Z,9.13
2023-02-19T01:05:12.379Z,9.80
2023-02-19T01:07:47.417Z,11.48
2023-02-19T01:10:19.676Z,9.52
2023-02-19T01:12:50.401Z,9.45
2023-02-19T01:15:43.128Z,8.05
2023-02-19T01:18:17.584Z,7.97
2023-02-19T01:20:48.597Z,7.40
2023-02-19T01:23:19.023Z,4.55
2023-02-19T01:25:50.270Z,4.32
2023-02-19T01:28:21.305Z,7.13
2023-02-19T01:30:51.575Z,4.60
2023-02-19T01:33:23.607Z,8.27
2023-02-19T01:35:55.458Z,4.45
2023-02-19T01:38:26.041Z,6.63
2023-02-19T01:41:01.177Z,6.88
2023-02-19T01:43:33.291Z,5.68
2023-02-19T01:46:04.362Z,4.53
2023-02-19T01:48:40.997Z,3.58
2023-02-19T01:51:19.518Z,4.18
2023-02-19T01:53:58.953Z,5.30
2023-02-19T01:56:33.287Z,2.15
2023-02-19T01:59:08.400Z,3.22
2023-02-19T02:01:46.088Z,2.40
2023-02-19T02:04:18.169Z,4.20
2023-02-19T02:06:54.002Z,3.75
2023-02-19T02:09:51.054Z,2.10
2023-02-19T02:12:21.478Z,3.03
2023-02-19T02:14:51.548Z,2.00
2023-02-19T02:18:07.436Z,2.22
2023-02-19T02:21:09.506Z,2.17
2023-02-19T02:24:09.977Z,2.60
2023-02-19T02:26:58.066Z,2.83
2023-02-19T02:29:56.183Z,3.05
2023-02-19T02:32:56.539Z,2.38
2023-02-19T02:35:50.405Z,2.25
2023-02-19T02:38:23.556Z,2.58
2023-02-19T02:40:56.800Z,3.53
2023-02-19T02:43:28.600Z,1.90
2023-02-19T02:46:00.724Z,5.28
2023-02-19T02:48:56.895Z,1.92
2023-02-19T02:51:34.854Z,1.20
2023-02-19T02:54:32.316Z,3.55
2023-02-19T02:57:08.132Z,2.15
2023-02-19T02:59:45.956Z,4.07
2023-02-19T03:02:24.730Z,2.78
2023-02-19T03:05:23.885Z,1.98
2023-02-19T03:08:01.633Z,5.07
2023-02-19T03:10:46.375Z,5.13
2023-02-19T03:13:41.666Z,3.00
2023-02-19T03:19:26.419Z,1.83
2023-02-19T03:22:12.004Z,1.48
2023-02-19T03:25:07.310Z,2.42
2023-02-19T03:27:42.248Z,2.03
2023-02-19T03:30:26.739Z,2.97
2023-02-19T03:33:02.105Z,2.47
2023-02-19T03:35:59.439Z,2.28
2023-02-19T03:38:39.952Z,1.70
2023-02-19T03:41:25.806Z,1.77
2023-02-19T03:44:09.568Z,1.60
2023-02-19T03:46:58.399Z,2.30
2023-02-19T03:49:31.624Z,2.05
2023-02-19T03:52:21.571Z,2.50
2023-02-19T03:55:09.943Z,2.25
2023-02-19T03:57:51.614Z,2.25
2023-02-19T04:00:49.459Z,2.70
2023-02-19T04:03:29.908Z,1.45
2023-02-19T04:06:30.793Z,1.38
2023-02-19T04:09:05.580Z,4.07
2023-02-19T04:11:36.446Z,1.20
2023-02-19T04:14:20.654Z,3.25
2023-02-19T04:16:58.914Z,1.10
2023-02-19T04:19:32.230Z,1.65
2023-02-19T04:22:03.730Z,2.30
2023-02-19T04:24:40.327Z,0.75
2023-02-19T04:27:11.660Z,2.50
2023-02-19T04:29:41.916Z,2.60
2023-02-19T04:32:13.948Z,2.10
2023-02-19T04:34:44.942Z,1.42
2023-02-19T04:37:15.205Z,3.22
2023-02-19T04:39:45.256Z,1.75
2023-02-19T04:42:15.164Z,3.00
2023-02-19T04:44:45.212Z,1.17
2023-02-19T04:47:19.202Z,2.63
2023-02-19T04:49:50.472Z,3.17
2023-02-19T04:52:20.608Z,2.45
2023-02-19T04:54:50.915Z,2.25
2023-02-19T04:57:21.443Z,1.83
2023-02-19T04:59:51.750Z,1.75
2023-02-19T05:02:21.957Z,1.42
2023-02-19T05:04:51.984Z,2.40
2023-02-19T05:07:22.434Z,2.95
2023-02-19T05:09:52.460Z,5.60
2023-02-19T05:12:23.037Z,3.55
2023-02-19T05:14:53.077Z,1.45
2023-02-19T05:17:23.108Z,1.80
2023-02-19T05:19:53.312Z,2.92
2023-02-19T05:22:23.369Z,1.42
2023-02-19T05:24:53.427Z,2.70
2023-02-19T05:27:23.513Z,1.88
2023-02-19T05:29:53.691Z,2.60
2023-02-19T05:32:24.437Z,2.47
2023-02-19T05:34:54.297Z,1.95
2023-02-19T05:37:24.245Z,4.05
2023-02-19T05:39:57.319Z,3.42
2023-02-19T05:42:27.714Z,1.63
2023-02-19T05:44:57.746Z,1.77
2023-02-19T05:47:27.695Z,1.92
2023-02-19T05:49:57.435Z,4.00
2023-02-19T05:52:28.817Z,3.72
2023-02-19T05:54:58.840Z,1.13
2023-02-19T05:57:29.071Z,2.65
2023-02-19T05:59:59.073Z,3.75
2023-02-19T06:02:29.302Z,3.92
2023-02-19T06:04:59.323Z,1.73
2023-02-19T06:07:29.238Z,1.98
2023-02-19T06:10:02.427Z,2.58
2023-02-19T06:12:32.791Z,2.85
2023-02-19T06:15:02.852Z,1.70
2023-02-19T06:17:33.619Z,1.25
2023-02-19T06:20:03.875Z,3.97
2023-02-19T06:22:34.428Z,3.30
2023-02-19T06:25:04.547Z,2.60
2023-02-19T06:27:34.708Z,2.47
2023-02-19T06:30:04.682Z,3.65
2023-02-19T06:32:35.242Z,3.25
2023-02-19T06:35:05.991Z,3.92
2023-02-19T06:37:36.428Z,4.07
2023-02-19T06:40:07.216Z,3.83
2023-02-19T06:42:37.486Z,1.15
2023-02-19T06:45:07.540Z,2.35
2023-02-19T06:47:43.546Z,5.10
2023-02-19T06:50:15.516Z,2.63
2023-02-19T06:52:45.726Z,11.13
2023-02-19T06:55:16.292Z,2.90
2023-02-19T06:57:46.693Z,3.40
2023-02-19T07:00:17.011Z,2.95
2023-02-19T07:02:47.211Z,2.63
2023-02-19T07:05:16.990Z,5.60
2023-02-19T07:07:47.962Z,3.45
2023-02-19T07:10:19.050Z,3.63
2023-02-19T07:12:49.286Z,2.55
2023-02-19T07:15:19.342Z,3.38
2023-02-19T07:17:49.611Z,2.47
2023-02-19T07:20:19.970Z,4.10
2023-02-19T07:22:50.035Z,4.78
2023-02-19T07:25:21.033Z,3.25
2023-02-19T07:27:51.419Z,2.95
2023-02-19T07:30:21.394Z,3.65
2023-02-19T07:32:51.982Z,3.63
2023-02-19T07:35:22.474Z,3.42
2023-02-19T07:37:53.241Z,5.28
2023-02-19T07:40:23.695Z,2.53
2023-02-19T07:42:53.729Z,2.95
2023-02-19T07:45:24.206Z,1.70
2023-02-19T07:47:54.297Z,3.97
2023-02-19T07:50:24.534Z,3.50
2023-02-19T07:52:54.347Z,4.72
2023-02-19T07:55:24.539Z,3.30
2023-02-19T07:57:55.222Z,3.15
2023-02-19T08:00:27.243Z,3.08
2023-02-19T08:03:05.296Z,1.45
2023-02-19T08:05:41.261Z,3.72
2023-02-19T08:08:16.799Z,4.22
2023-02-19T08:11:06.424Z,1.60
2023-02-19T08:13:36.457Z,3.95
2023-02-19T08:16:17.330Z,4.45
2023-02-19T08:18:49.493Z,5.18
2023-02-19T08:21:19.755Z,3.00
2023-02-19T08:23:51.306Z,2.15
2023-02-19T08:26:21.339Z,4.50
2023-02-19T08:28:51.149Z,3.40
2023-02-19T08:31:21.176Z,2.63
2023-02-19T08:33:52.012Z,4.40
2023-02-19T08:36:23.201Z,2.47
2023-02-19T08:38:53.292Z,3.20
2023-02-19T08:41:23.506Z,3.85
2023-02-19T08:43:53.573Z,5.53
2023-02-19T08:46:24.157Z,3.72
2023-02-19T08:48:55.477Z,2.30
2023-02-19T08:51:26.096Z,2.20
2023-02-19T08:53:56.557Z,1.98
2023-02-19T08:56:26.462Z,3.80
2023-02-19T08:58:57.085Z,4.93
2023-02-19T09:01:27.970Z,2.88
2023-02-19T09:03:58.117Z,5.43
2023-02-19T09:06:28.267Z,2.97
2023-02-19T09:08:58.198Z,4.30
2023-02-19T09:13:59.020Z,2.65
2023-02-19T09:16:31.555Z,5.43
2023-02-19T09:19:04.479Z,2.17
2023-02-19T09:21:35.543Z,4.53
2023-02-19T09:24:06.064Z,1.48
2023-02-19T09:26:37.743Z,3.63
2023-02-19T09:29:08.810Z,3.92
2023-02-19T09:31:39.187Z,4.60
2023-02-19T09:34:10.017Z,2.65
2023-02-19T09:36:41.366Z,2.72
2023-02-19T09:39:14.667Z,2.78
2023-02-19T09:41:57.226Z,2.95
2023-02-19T09:44:43.102Z,2.25
2023-02-19T09:47:25.372Z,2.25
2023-02-19T09:53:25.684Z,3.05
2023-02-19T09:55:56.086Z,1.90
2023-02-19T09:58:39.993Z,2.50
2023-02-19T10:01:13.893Z,4.18
2023-02-19T10:03:48.187Z,6.60
2023-02-19T10:06:27.308Z,6.00
2023-02-19T10:09:25.121Z,2.33
2023-02-19T10:12:00.197Z,2.60
2023-02-19T10:14:33.489Z,2.60
2023-02-19T10:17:06.305Z,1.70
2023-02-19T10:19:37.597Z,3.47
2023-02-19T10:22:13.949Z,3.08
2023-02-19T10:24:49.296Z,3.50
2023-02-19T10:27:19.738Z,2.55
2023-02-19T10:29:52.381Z,5.40
2023-02-19T10:32:28.696Z,3.50
2023-02-19T10:35:17.776Z,3.58
2023-02-19T10:37:53.347Z,3.42
2023-02-19T10:40:30.815Z,3.42
2023-02-19T10:43:06.483Z,1.42
2023-02-19T10:45:54.444Z,4.55
2023-02-19T10:48:40.056Z,4.22
2023-02-19T10:51:13.208Z,2.65
2023-02-19T10:53:46.836Z,1.90
2023-02-19T10:56:25.746Z,5.20
2023-02-19T10:58:56.876Z,1.90
2023-02-19T11:01:28.480Z,3.25
2023-02-19T11:04:18.709Z,3.63
2023-02-19T11:06:50.270Z,3.13
2023-02-19T11:09:57.471Z,3.15
2023-02-19T11:12:29.655Z,5.30
2023-02-19T11:15:05.886Z,2.25
2023-02-19T11:17:37.328Z,1.60
2023-02-19T11:20:18.955Z,4.70
2023-02-19T11:22:50.741Z,4.07
2023-02-19T11:25:27.289Z,4.65
2023-02-19T11:28:09.502Z,3.20
2023-02-19T11:30:44.893Z,4.63
2023-02-19T11:33:23.773Z,2.53
2023-02-19T11:36:22.893Z,4.40
2023-02-19T11:38:53.107Z,3.47
2023-02-19T11:41:41.509Z,1.63
2023-02-19T11:44:35.494Z,7.25
2023-02-19T11:47:39.163Z,3.10
2023-02-19T11:50:26.771Z,151.77
2023-02-19T11:53:21.181Z,19.73
2023-02-19T11:56:05.557Z,8.40
2023-02-19T11:59:03.417Z,29.52
2023-02-19T12:01:56.005Z,58.33
2023-02-19T12:04:50.208Z,44.38
2023-02-19T12:07:42.245Z,106.40
2023-02-19T12:10:31.041Z,84.47
2023-02-19T12:13:06.761Z,107.63
2023-02-19T12:18:49.564Z,62.38
2023-02-19T12:21:43.042Z,45.83
2023-02-19T12:27:09.198Z,127.93
2023-02-19T12:29:51.178Z,69.25
2023-02-19T12:32:38.157Z,90.95
2023-02-19T12:35:52.874Z,40.42
2023-02-19T12:38:27.155Z,12.70
2023-02-19T12:41:14.627Z,69.75
2023-02-19T12:44:10.387Z,51.85
2023-02-19T12:46:49.507Z,20.17
2023-02-19T12:49:29.742Z,38.50
2023-02-19T12:52:48.973Z,19.40
2023-02-19T12:55:46.412Z,26.65
2023-02-19T12:58:40.679Z,96.90
2023-02-19T13:01:17.772Z,117.30
2023-02-19T13:04:08.484Z,99.47
2023-02-19T13:07:08.593Z,71.30
2023-02-19T13:12:55.595Z,71.82
2023-02-19T13:48:37.329Z,64.57
2023-02-19T13:51:23.130Z,70.57
2023-02-19T13:54:00.760Z,49.58
2023-02-19T13:56:37.175Z,46.78
2023-02-19T13:59:22.153Z,44.63
2023-02-19T14:02:23.028Z,56.38
2023-02-19T14:04:57.481Z,76.53
2023-02-19T14:07:47.306Z,47.92
2023-02-19T14:11:23.282Z,36.00
2023-02-19T14:13:56.095Z,53.33
2023-02-19T14:16:53.385Z,63.17
2023-02-19T14:19:52.393Z,44.10
2023-02-19T14:23:04.415Z,32.67
2023-02-19T14:25:46.023Z,71.68
2023-02-19T14:28:20.551Z,35.85
2023-02-19T14:31:24.048Z,34.00
2023-02-19T14:34:28.755Z,67.70
2023-02-19T14:38:05.091Z,71.05
2023-02-19T14:41:07.663Z,46.78
2023-02-19T14:44:04.056Z,47.15
2023-02-19T14:46:43.547Z,52.67
2023-02-19T14:49:32.096Z,92.20
2023-02-19T14:52:08.047Z,64.32
2023-02-19T14:54:54.606Z,57.15
2023-02-19T14:57:31.227Z,60.00
2023-02-19T15:00:08.417Z,79.25
2023-02-19T15:02:47.295Z,56.17
2023-02-19T15:05:27.937Z,22.63
2023-02-19T15:08:22.085Z,38.58
2023-02-19T15:10:52.299Z,82.75
2023-02-19T15:13:30.440Z,71.63
2023-02-19T15:16:14.844Z,53.67
2023-02-19T15:18:48.807Z,40.60
2023-02-19T15:21:31.405Z,52.60
2023-02-19T15:24:09.242Z,54.70
2023-02-19T15:26:44.778Z,58.15
2023-02-19T15:29:18.307Z,32.05
2023-02-19T15:31:57.092Z,52.35
2023-02-19T15:34:42.341Z,75.90
2023-02-19T15:37:16.175Z,76.28
2023-02-19T15:39:57.106Z,60.40
2023-02-19T15:42:35.766Z,46.88
2023-02-19T15:45:20.350Z,60.80
2023-02-19T15:48:08.543Z,54.45
2023-02-19T15:50:48.952Z,65.25
2023-02-19T15:53:31.198Z,58.08
2023-02-19T15:56:35.728Z,79.30
2023-02-19T15:59:15.611Z,62.90
2023-02-19T16:01:49.008Z,75.55
2023-02-19T16:04:20.845Z,53.80
2023-02-19T16:07:05.635Z,44.78
2023-02-19T16:09:40.515Z,69.10
2023-02-19T16:12:30.277Z,75.88
2023-02-19T16:15:01.676Z,63.22
2023-02-19T16:17:42.575Z,68.55
2023-02-19T16:20:35.557Z,67.63
2023-02-19T16:23:22.435Z,76.43
2023-02-19T16:26:04.088Z,65.45
2023-02-19T16:31:38.952Z,55.15
2023-02-19T16:34:21.095Z,71.75
2023-02-19T16:37:05.912Z,71.75
2023-02-19T16:39:36.171Z,59.42
2023-02-19T16:42:19.476Z,68.95
2023-02-19T16:45:04.869Z,58.97
2023-02-19T16:47:42.941Z,77.03
2023-02-19T16:53:23.722Z,68.25
2023-02-19T16:55:54.380Z,51.47
2023-02-19T16:58:25.415Z,60.92
2023-02-19T17:01:24.812Z,64.68
2023-02-19T17:04:03.416Z,60.35
2023-02-19T17:06:39.754Z,67.32
2023-02-19T17:09:10.955Z,65.38
2023-02-19T17:11:41.762Z,61.72
2023-02-19T17:14:12.034Z,65.55
2023-02-19T17:16:46.644Z,44.08
2023-02-19T17:19:21.528Z,26.83
2023-02-19T17:21:54.916Z,53.35
2023-02-19T17:24:25.954Z,69.90
2023-02-19T17:26:57.350Z,59.33
2023-02-19T17:29:37.019Z,62.10
2023-02-19T17:32:09.736Z,112.13
2023-02-19T17:34:40.314Z,63.28
2023-02-19T17:37:11.212Z,71.18
2023-02-19T17:39:42.003Z,167.98
2023-02-19T17:42:15.641Z,85.60
2023-02-19T17:44:49.247Z,148.93
2023-02-19T17:47:21.582Z,89.63
2023-02-19T17:49:52.642Z,99.97
2023-02-19T17:52:25.169Z,101.15
2023-02-19T17:54:56.687Z,82.05
2023-02-19T18:03:14.882Z,86.55
2023-02-19T18:05:47.079Z,80.20
2023-02-19T18:08:17.477Z,45.38
2023-02-19T18:10:47.792Z,91.50
2023-02-19T18:18:38.534Z,67.55
2023-02-19T18:21:12.764Z,81.90
2023-02-19T18:23:44.854Z,84.57
2023-02-19T18:26:21.399Z,98.43
2023-02-19T18:28:56.750Z,74.68
2023-02-19T18:31:28.536Z,66.68
2023-02-19T18:34:01.402Z,87.30
2023-02-19T18:36:32.367Z,50.33
2023-02-19T18:39:07.472Z,57.95
2023-02-19T18:41:37.716Z,36.55
2023-02-19T18:44:10.913Z,72.63
2023-02-19T18:46:48.869Z,74.72
2023-02-19T18:49:25.437Z,85.28
2023-02-19T18:51:55.985Z,59.13
2023-02-19T18:54:27.972Z,103.05
2023-02-19T18:57:09.477Z,78.82
2023-02-19T18:59:42.177Z,47.97
2023-02-19T19:02:13.434Z,61.13
2023-02-19T19:04:45.884Z,64.28
2023-02-19T19:07:16.072Z,55.45
2023-02-19T19:09:47.966Z,64.72
2023-02-19T19:12:22.541Z,40.35
2023-02-19T19:14:53.593Z,37.92
2023-02-19T19:17:25.396Z,70.05
2023-02-19T19:19:56.368Z,59.42
2023-02-19T19:22:31.548Z,45.63
2023-02-19T19:25:05.673Z,67.85
2023-02-19T19:27:35.807Z,57.40
2023-02-19T19:30:06.326Z,42.88
2023-02-19T19:32:37.210Z,81.20
2023-02-19T19:35:11.714Z,53.65
2023-02-19T19:37:43.119Z,72.43
2023-02-19T19:40:15.305Z,60.50
2023-02-19T19:42:47.332Z,63.60
2023-02-19T19:45:20.736Z,58.22
2023-02-19T19:47:51.942Z,59.28
2023-02-19T19:50:26.172Z,47.67
2023-02-19T19:52:57.827Z,54.22
2023-02-19T19:55:37.574Z,28.60
2023-02-19T19:58:11.545Z,65.00
2023-02-19T20:00:44.989Z,47.20
2023-02-19T20:03:18.489Z,72.93
2023-02-19T20:05:52.842Z,57.22
2023-02-19T20:08:23.738Z,50.88
2023-02-19T20:10:54.415Z,56.88
2023-02-19T20:13:30.891Z,52.30
2023-02-19T20:16:01.996Z,62.63
2023-02-19T20:18:33.433Z,33.60
2023-02-19T20:21:05.697Z,43.25
2023-02-19T20:23:37.773Z,75.43
2023-02-19T20:26:09.823Z,40.92
2023-02-19T20:28:49.028Z,45.00
2023-02-19T20:31:19.995Z,72.35
2023-02-19T20:33:55.806Z,64.85
2023-02-19T20:39:04.317Z,66.43
2023-02-19T20:41:35.010Z,45.95
2023-02-19T20:44:06.551Z,82.55
2023-02-19T20:46:43.713Z,59.83
2023-02-19T20:49:15.172Z,66.78
2023-02-19T20:51:53.061Z,59.10
2023-02-19T20:54:49.833Z,56.97
2023-02-19T20:57:25.380Z,61.88
2023-02-19T21:00:12.263Z,64.22
2023-02-19T21:02:46.960Z,57.67
2023-02-19T21:05:47.247Z,70.85
2023-02-19T21:10:50.112Z,68.90
2023-02-19T21:13:23.931Z,40.10
2023-02-19T21:15:59.022Z,68.03
2023-02-19T21:18:29.519Z,76.10
2023-02-19T21:21:00.678Z,59.47
2023-02-19T21:23:35.422Z,92.85
2023-02-19T21:26:05.870Z,60.88
2023-02-19T21:28:38.302Z,58.75
2023-02-19T21:31:12.011Z,58.38
2023-02-19T21:33:44.554Z,56.55
2023-02-19T21:36:19.832Z,54.03
2023-02-19T21:38:50.947Z,62.45
2023-02-19T21:41:22.420Z,86.32
2023-02-19T21:43:55.612Z,67.53
2023-02-19T21:46:29.274Z,48.40
2023-02-19T21:49:01.801Z,60.10
2023-02-19T21:51:40.205Z,241.88
2023-02-19T21:54:28.597Z,75.88
2023-02-19T21:56:59.241Z,55.10
2023-02-19T21:59:32.459Z,52.28
2023-02-19T22:02:07.818Z,51.83
2023-02-19T22:05:03.092Z,42.13
2023-02-19T22:07:33.551Z,56.55
2023-02-19T22:10:03.905Z,60.85
2023-02-19T22:12:44.073Z,57.17
2023-02-19T22:15:15.501Z,105.65
2023-02-19T22:17:51.407Z,70.65
2023-02-19T22:20:27.263Z,41.50
2023-02-19T22:23:03.615Z,49.13
2023-02-19T22:25:36.465Z,56.60
2023-02-19T22:28:09.503Z,42.35
2023-02-19T22:30:44.805Z,52.42
2023-02-19T22:33:16.706Z,33.25
2023-02-19T22:38:35.836Z,45.15
2023-02-19T22:41:23.878Z,56.40
2023-02-19T22:43:58.518Z,57.55
2023-02-19T22:46:39.431Z,60.42
2023-02-19T22:49:12.145Z,63.28
2023-02-19T22:51:53.918Z,72.28
2023-02-19T22:54:28.484Z,64.93
2023-02-19T22:57:01.427Z,76.20
2023-02-19T22:59:32.698Z,47.42
2023-02-19T23:02:03.713Z,57.45
2023-02-19T23:04:37.503Z,67.55
2023-02-19T23:07:25.109Z,32.67
2023-02-19T23:10:00.090Z,68.13
2023-02-19T23:12:35.679Z,72.75
2023-02-19T23:15:08.012Z,67.40
2023-02-19T23:17:42.639Z,64.65
2023-02-19T23:20:15.969Z,55.53
2023-02-19T23:22:51.118Z,59.13
2023-02-19T23:25:23.691Z,54.05
2023-02-19T23:27:58.331Z,62.33
2023-02-19T23:30:29.993Z,59.10
2023-02-19T23:33:03.628Z,47.17
2023-02-19T23:35:37.357Z,71.82
2023-02-19T23:38:08.417Z,54.15
2023-02-19T23:40:38.929Z,73.13
2023-02-19T23:43:33.508Z,67.07
2023-02-19T23:46:03.630Z,50.58
2023-02-19T23:49:00.177Z,47.35
2023-02-19T23:51:30.603Z,75.82
2023-02-19T23:54:09.735Z,75.78
2023-02-19T23:56:48.538Z,62.05
2023-02-19T23:59:21.465Z,54.45
